Airfield :
LOGIN :

Register | Disclaimer

   EN    FR    IT 

 










Legend :    VFR   Marginal VFR   IFR   Intensive IFR   Very Intensive IFR
Visi :
Ceiling :
>= 8 km
>= 3000ft
5 to 8 km
1000 to 3000 ft
1500m to 5 km
500 to 1000 ft
800 to 1500m
200 to 500 ft
< 800m
< 200 ft
Symbols :   Thunderstorms  Fog  Heavy snow  Heavy precipitations  Wind > 20 kt
SIGMETs :     Misc.  Thunderstorms  Icing  Turbulence  Mountain Waves  Volcanic Ashes







- Airport Elevation : 885 ft
- IATA code : BAS
- Download approach charts


LFSB - Bale-Mulhouse

CURRENT METAR :
  • 241430Z 29010KT 230V310 CAVOK 19/03 Q1022 NOSIG

EXPIRED METARs :
  • 241400Z 28006KT 230V350 CAVOK 19/05 Q1022 NOSIG
  • 241330Z 30008KT 260V340 CAVOK 18/05 Q1022 NOSIG
  • 241300Z 32008KT 280V350 9000 NSC 17/05 Q1023 BECMG 28008KT
  • 241230Z 34006KT 300V010 8000 NSC 17/07 Q1023 BECMG 8000
  • 241200Z 33004KT 270V030 7000 NSC 16/07 Q1023 BECMG 8000

TAF TAF LFSB
Valid from the 24 at 12:00 until the 25 at 12:00 UTC


241100Z 2412/2512 34004KT 7000 NSW NSC
BECMG 2413/2416 27010KT CAVOK
BECMG 2417/2419 BKN045
TEMPO 2502/2507 BKN008
PROB30
TEMPO 2503/2508 4000 -RADZ
TEMPO 2507/2512 34006KT
Met : +33 3 89 90 31 11
No reported NOTAMs for that airfield.



MET'MAP, your aeronautical weather chart ! - Copyright ORBIFLY December 2007 - Disclaimer

ORBIFLY MET'MAP TEAM :

Programming & Development : Alexandra Zaïnal
Concept & Development : Baudouin d'Aumeries
Co-Development & Prog : Marc-Olivier Méhu
Technical & hardware support : Manuel Goepfert

Contact : metmap@orbifly.com




SOURCES & CREDITS :

   NOAA